Airfield :
LOGIN :

Register | Disclaimer

   EN    FR    IT 

 










Legend :    VFR   Marginal VFR   IFR   Intensive IFR   Very Intensive IFR
Visi :
Ceiling :
>= 8 km
>= 3000ft
5 to 8 km
1000 to 3000 ft
1500m to 5 km
500 to 1000 ft
800 to 1500m
200 to 500 ft
< 800m
< 200 ft
Symbols :   Thunderstorms  Fog  Heavy snow  Heavy precipitations  Wind > 20 kt
SIGMETs :     Misc.  Thunderstorms  Icing  Turbulence  Mountain Waves  Volcanic Ashes






- Airport Elevation : 3 ft
- IATA code : DHR


EHKD - Den Helder De Kooy

CURRENT METAR :
  • 190819Z AUTO 22015KT 190V260 9999 FEW006 OVC007 15/14 Q1013 GRN NOSIG

EXPIRED METARs :
  • 190755Z AUTO 23018KT 200V270 9999 SCT004 OVC005 15/14 Q1013 YLO NOSIG
  • 190736Z AUTO 23018KT 200V260 9999 SCT005 OVC006 15/14 Q1013 YLO NOSIG
  • 190727Z AUTO 22017KT 9999 SCT006 BKN007 OVC009 16/14 Q1013 YLO NOSIG
  • 190709Z AUTO 23018KT 9999 BKN007 OVC008 16/14 Q1013 GRN NOSIG
  • 190702Z AUTO 23017KT 9999 BKN006 OVC008 16/14 Q1013 YLO NOSIG
  • 190658Z AUTO 22017KT 9999 SCT006 BKN008 OVC009 16/14 Q1013 YLO NOSIG
  • 190625Z AUTO 23016KT 9999 BKN005 OVC006 16/14 Q1012 YLO NOSIG
  • 190555Z AUTO 23015KT 9999 BKN006 OVC007 16/14 Q1012 YLO NOSIG
  • 190527Z AUTO 22013KT 9999 BKN006 OVC008 16/15 Q1012 YLO NOSIG
  • 190525Z AUTO 22014KT 190V250 9999 SCT006 BKN007 OVC009 16/14 Q1012 YLO NOSIG

TAF TAF EHKD
Valid from the 19 at 05:00 until the 19 at 17:00 UTC


190405Z 1905/1917 22015G25KT 9999 BKN006 OVC009
PROB30
TEMPO 1906/1908 24018G30KT SCT003 OVC005
BECMG 1908/1910 26010G20KT BKN012 BKN020
BECMG 1910/1913 33006KT SCT015 BKN022
BECMG 1915/1917 04007KT



MET'MAP, your aeronautical weather chart ! - Copyright ORBIFLY December 2007 - Disclaimer

ORBIFLY MET'MAP TEAM :

Programming & Development : Alexandra Zaïnal
Concept & original design : Baudouin d'Aumeries
Assistance for programming : Marc-Olivier Méhu
Technical & hardware support : Manuel Goepfert

Contact : metmap@orbifly.com




SOURCES & CREDITS :

   NOAA